Urla, Turkey
Current Conditions -  °F | °C
As of 7:50 AM on Wednesday 22 Oct 2014 (Local Time) from LTBJ Reporting Station
Scattered Clouds Scattered Clouds  
Wind Chill: 52°   Ceiling: Unl
Heat Index: 52°   Visibility: 6mi
Dew Point: 43°   Wind: 7mph
Humidity: 71%   Direction: 190°S
Pressure: 29.88"   Gusts: NA
Location:  38.33°N, 26.76°E
Report Text: LTBJ 220450Z 19006KT 140V200 9999 FEW030 SCT100 11/06 Q1012 NOSIG
Loading
Personal Weather Stations






























Interactive Weather Map
Tropical Storm Tracking
New forecast layout! Learn more

10-Day Weather Forecast

Advertisements
Track Severe Weather on mobile